Time;durP1;ratioP1;P1;durP2;ratioP2;P2;SDS_P1;SDS_P2;PMS_P1;PMS_P2;Temp;Humidity;BMP_temperature;BMP_pressure;BME280_temperature;BME280_humidity;BME280_pressure;Samples;Min_cycle;Max_cycle;Signal;HPM_P1;HPM_P2
2022/05/03 00:02:32;;;;;;;11.05;7.13;;;11.00;95.50;;;;;;5031439;28;20024;-67
2022/05/03 00:05:04;;;;;;;10.73;7.20;;;11.10;95.30;;;;;;5051444;28;20422;-67
2022/05/03 00:07:44;;;;;;;10.25;7.70;;;11.10;95.40;;;;;;5052736;28;20382;-68
2022/05/03 00:10:23;;;;;;;9.98;7.18;;;11.10;95.20;;;;;;5050555;28;20025;-68
2022/05/03 00:12:57;;;;;;;9.23;6.68;;;11.10;95.20;;;;;;5051809;28;20036;-67
2022/05/03 00:15:24;;;;;;;11.07;7.55;;;11.10;95.30;;;;;;5048956;28;20436;-69
2022/05/03 00:17:53;;;;;;;8.18;6.55;;;11.00;95.50;;;;;;5052954;28;20032;-68
2022/05/03 00:20:20;;;;;;;9.73;6.97;;;11.00;95.60;;;;;;5052234;28;20021;-68
2022/05/03 00:22:46;;;;;;;8.65;6.85;;;10.90;95.70;;;;;;5053126;28;20025;-67
2022/05/03 00:25:12;;;;;;;10.35;8.25;;;10.70;96.30;;;;;;5053919;28;20315;-66
2022/05/03 00:27:38;;;;;;;10.32;8.73;;;10.50;96.60;;;;;;5052321;28;20079;-67
2022/05/03 00:30:06;;;;;;;10.55;8.07;;;10.30;96.80;;;;;;5051753;28;20032;-68
2022/05/03 00:32:34;;;;;;;11.52;8.57;;;10.10;96.90;;;;;;5052309;28;20059;-67
2022/05/03 00:35:00;;;;;;;11.13;8.88;;;10.00;97.30;;;;;;5034920;28;20044;-67
2022/05/03 00:37:28;;;;;;;10.90;9.20;;;9.80;97.50;;;;;;5035758;28;20020;-69
2022/05/03 00:39:55;;;;;;;11.20;9.60;;;9.60;97.60;;;;;;5031706;28;20021;-68
2022/05/03 00:42:34;;;;;;;14.07;9.07;;;9.30;97.60;;;;;;5047801;28;20020;-66
2022/05/03 00:45:37;;;;;;;15.95;12.38;;;9.20;97.40;;;;;;5048793;28;20057;-68
2022/05/03 00:48:29;;;;;;;13.57;11.82;;;9.00;97.50;;;;;;5041916;28;20489;-68
2022/05/03 00:51:14;;;;;;;15.15;12.93;;;8.70;97.20;;;;;;5053936;28;20047;-68
2022/05/03 00:54:09;;;;;;;14.40;12.90;;;8.70;97.40;;;;;;5054761;28;20102;-67
2022/05/03 00:56:51;;;;;;;12.70;11.35;;;8.60;97.20;;;;;;5052513;28;20018;-66
2022/05/03 00:59:56;;;;;;;13.93;11.70;;;8.40;97.00;;;;;;5060635;28;20045;-68
2022/05/03 01:02:45;;;;;;;14.90;12.05;;;8.30;96.70;;;;;;5035104;28;20071;-68
2022/05/03 01:05:19;;;;;;;12.57;10.15;;;8.20;96.20;;;;;;5036344;28;20033;-68
2022/05/03 01:07:53;;;;;;;14.32;12.13;;;8.20;96.10;;;;;;5054496;28;20025;-69
2022/05/03 01:10:34;;;;;;;14.73;12.45;;;8.10;95.80;;;;;;5053869;28;20025;-68
2022/05/03 01:13:45;;;;;;;14.40;11.07;;;8.00;95.80;;;;;;5035695;28;20025;-68
2022/05/03 01:16:28;;;;;;;14.57;10.38;;;7.90;95.10;;;;;;4988227;28;20065;-67
2022/05/03 01:19:03;;;;;;;14.50;10.82;;;7.80;95.10;;;;;;4992299;28;20105;-68
2022/05/03 01:21:29;;;;;;;12.60;10.30;;;7.80;95.00;;;;;;5033088;28;20045;-67
2022/05/03 01:24:36;;;;;;;12.60;10.48;;;7.60;95.10;;;;;;5053412;28;20374;-69
2022/05/03 01:27:34;;;;;;;12.80;9.02;;;7.40;94.80;;;;;;5052566;28;20427;-68
2022/05/03 01:30:02;;;;;;;12.20;10.00;;;7.30;94.10;;;;;;5039884;28;20041;-68
2022/05/03 01:32:32;;;;;;;12.70;10.65;;;7.30;94.20;;;;;;5035317;28;20064;-68
2022/05/03 01:35:00;;;;;;;15.35;12.23;;;7.30;93.90;;;;;;5035962;28;20036;-67
2022/05/03 01:37:54;;;;;;;12.05;9.82;;;7.30;94.00;;;;;;5060593;28;20107;-68
2022/05/03 01:40:31;;;;;;;14.00;11.63;;;7.20;93.60;;;;;;5052682;28;20043;-68
2022/05/03 01:43:10;;;;;;;16.05;11.75;;;7.20;93.00;;;;;;5056400;28;20394;-69
2022/05/03 01:45:56;;;;;;;15.43;12.10;;;7.20;93.00;;;;;;5052384;28;20028;-68
2022/05/03 01:51:52;;;;;;;14.95;11.88;;;7.00;92.80;;;;;;5052678;28;20492;-68
2022/05/03 01:54:56;;;;;;;17.80;13.73;;;7.00;92.50;;;;;;5051480;28;20025;-67
2022/05/03 01:57:26;;;;;;;16.52;12.52;;;7.10;92.10;;;;;;5052523;28;20082;-68
2022/05/03 02:00:05;;;;;;;14.07;11.68;;;7.00;92.30;;;;;;5034212;28;20342;-68
2022/05/03 02:02:42;;;;;;;16.65;13.68;;;7.00;92.30;;;;;;5062524;28;20027;-69
2022/05/03 02:05:33;;;;;;;18.35;13.73;;;7.00;91.70;;;;;;5055112;28;20025;-67
2022/05/03 02:08:02;;;;;;;18.08;13.68;;;7.10;91.60;;;;;;5056118;28;20040;-68
2022/05/03 02:10:38;;;;;;;16.65;13.10;;;7.10;91.90;;;;;;5041219;28;20329;-68
2022/05/03 02:16:29;;;;;;;16.60;13.00;;;7.10;91.70;;;;;;5031318;28;20063;-69
2022/05/03 02:19:13;;;;;;;19.45;14.57;;;7.00;92.20;;;;;;5054981;28;20497;-68
2022/05/03 02:21:53;;;;;;;18.57;14.17;;;7.00;92.00;;;;;;5056569;28;20025;-69
2022/05/03 02:24:34;;;;;;;17.15;13.43;;;6.90;91.70;;;;;;5053209;28;20439;-69
2022/05/03 02:27:08;;;;;;;18.88;15.02;;;7.00;91.60;;;;;;5063704;28;20324;-69
2022/05/03 02:29:43;;;;;;;;;;;7.00;91.50;;;;;;5057893;28;20075;-69
2022/05/03 02:32:12;;;;;;;19.08;15.00;;;7.00;91.70;;;;;;5056998;28;19908;-69
2022/05/03 02:34:58;;;;;;;17.25;14.07;;;7.00;92.00;;;;;;5055697;28;20032;-69
2022/05/03 02:37:28;;;;;;;19.90;14.80;;;6.90;92.00;;;;;;5054518;28;20017;-69
2022/05/03 02:40:07;;;;;;;19.17;14.45;;;6.90;91.30;;;;;;5054063;28;20020;-68
2022/05/03 02:42:34;;;;;;;17.52;14.35;;;6.90;91.60;;;;;;5056239;28;20021;-68
2022/05/03 02:45:01;;;;;;;19.55;15.13;;;6.80;91.70;;;;;;5054793;28;20033;-68
2022/05/03 02:48:03;;;;;;;18.60;14.98;;;6.80;91.40;;;;;;5056762;28;20436;-69
2022/05/03 02:50:34;;;;;;;19.33;15.00;;;6.70;91.70;;;;;;5053419;28;20508;-68
2022/05/03 02:53:07;;;;;;;20.05;15.70;;;6.50;91.50;;;;;;5055022;28;20025;-66
2022/05/03 02:55:38;;;;;;;19.25;16.15;;;6.60;90.00;;;;;;5054352;28;20060;-68
2022/05/03 02:58:15;;;;;;;20.42;16.90;;;6.70;90.10;;;;;;5056119;28;20017;-68
2022/05/03 03:03:56;;;;;;;19.13;15.32;;;6.90;90.20;;;;;;5057960;28;20108;-68
2022/05/03 03:06:23;;;;;;;21.80;17.40;;;7.00;90.90;;;;;;5038484;28;20025;-69
2022/05/03 03:08:54;;;;;;;21.05;16.77;;;6.90;91.70;;;;;;5059570;28;20039;-68
2022/05/03 03:11:31;;;;;;;20.85;17.42;;;6.90;91.70;;;;;;5052594;28;20029;-69
2022/05/03 03:14:11;;;;;;;21.15;17.40;;;6.80;91.70;;;;;;5059555;28;20122;-69
2022/05/03 03:17:04;;;;;;;20.02;16.20;;;6.70;91.10;;;;;;5034986;28;20056;-68
2022/05/03 03:19:50;;;;;;;20.98;16.58;;;6.70;91.10;;;;;;5060002;28;20083;-67
2022/05/03 03:22:16;;;;;;;21.23;17.58;;;6.60;91.10;;;;;;5051040;28;20333;-68
2022/05/03 03:24:42;;;;;;;22.10;17.58;;;6.70;90.70;;;;;;5053264;28;20025;-68
2022/05/03 03:27:11;;;;;;;18.25;15.55;;;6.70;90.60;;;;;;5055217;28;20059;-68
2022/05/03 03:29:41;;;;;;;20.40;17.63;;;6.70;90.40;;;;;;5037545;28;20081;-69
2022/05/03 03:32:09;;;;;;;21.50;17.05;;;6.70;90.60;;;;;;5053138;28;20036;-68
2022/05/03 03:34:41;;;;;;;20.25;17.77;;;6.70;90.50;;;;;;5053255;28;20486;-69
2022/05/03 03:37:07;;;;;;;19.80;16.08;;;6.60;91.00;;;;;;5053693;28;20017;-68
2022/05/03 03:39:34;;;;;;;20.67;16.85;;;6.50;90.40;;;;;;5051247;28;20052;-69
2022/05/03 03:42:06;;;;;;;21.08;17.67;;;6.60;89.80;;;;;;5053619;28;20095;-69
2022/05/03 03:44:33;;;;;;;24.67;18.73;;;6.60;89.70;;;;;;5055207;28;20052;-69
2022/05/03 03:47:00;;;;;;;21.10;17.10;;;6.70;89.70;;;;;;5057321;28;20044;-69
2022/05/03 03:49:29;;;;;;;23.08;17.80;;;6.70;90.30;;;;;;5054787;28;20385;-69
2022/05/03 03:51:57;;;;;;;25.15;17.92;;;6.70;90.30;;;;;;5036766;28;20112;-68
2022/05/03 03:54:24;;;;;;;22.83;18.17;;;6.60;90.50;;;;;;5054178;28;20044;-69
2022/05/03 03:56:52;;;;;;;24.77;18.95;;;6.50;89.80;;;;;;5057670;28;20096;-69
2022/05/03 03:59:18;;;;;;;22.05;17.92;;;6.60;89.80;;;;;;5055813;28;20053;-69
2022/05/03 04:01:44;;;;;;;21.63;18.65;;;6.60;89.20;;;;;;5049592;28;20086;-69
2022/05/03 04:04:11;;;;;;;23.42;18.30;;;6.60;89.50;;;;;;5056535;28;20529;-67
2022/05/03 04:06:38;;;;;;;20.05;16.50;;;6.60;89.90;;;;;;5048576;28;20454;-68
2022/05/03 04:09:04;;;;;;;23.42;18.15;;;6.60;89.70;;;;;;5061410;28;20033;-68
2022/05/03 04:11:45;;;;;;;23.10;18.13;;;6.60;89.80;;;;;;5054977;28;20029;-69
2022/05/03 04:14:14;;;;;;;22.42;17.77;;;6.60;89.20;;;;;;5057051;28;20024;-68
2022/05/03 04:16:41;;;;;;;27.08;18.75;;;6.60;89.30;;;;;;5050044;28;20025;-68
2022/05/03 04:19:07;;;;;;;25.15;18.95;;;6.70;89.00;;;;;;5050576;28;20444;-68
2022/05/03 04:21:34;;;;;;;21.98;17.65;;;6.80;89.30;;;;;;5036920;28;20321;-69
2022/05/03 04:24:00;;;;;;;21.92;17.88;;;6.80;89.70;;;;;;5053019;28;20056;-68
2022/05/03 04:26:27;;;;;;;21.88;17.98;;;6.80;89.30;;;;;;5053018;28;20422;-68
2022/05/03 04:29:00;;;;;;;22.75;18.30;;;6.90;89.50;;;;;;5055340;28;20046;-68
2022/05/03 04:31:30;;;;;;;22.67;18.63;;;7.00;89.50;;;;;;5049776;28;20060;-68
2022/05/03 04:33:56;;;;;;;25.00;18.48;;;7.10;90.20;;;;;;5054571;28;20033;-69
2022/05/03 04:36:22;;;;;;;20.08;15.77;;;7.10;90.40;;;;;;5053494;28;20021;-69
2022/05/03 04:38:52;;;;;;;20.50;16.98;;;7.10;90.30;;;;;;5057752;28;20028;-68
2022/05/03 04:41:20;;;;;;;19.33;16.67;;;7.00;91.20;;;;;;5050867;28;20033;-69
2022/05/03 04:43:46;;;;;;;18.88;15.63;;;6.90;91.20;;;;;;5054880;28;20460;-69
2022/05/03 04:46:11;;;;;;;20.10;15.48;;;6.80;91.30;;;;;;5053480;28;20025;-69
2022/05/03 04:48:37;;;;;;;20.25;16.58;;;6.80;91.70;;;;;;5034057;28;20111;-68
2022/05/03 04:51:03;;;;;;;21.95;16.08;;;6.70;91.30;;;;;;5051807;28;20117;-69
2022/05/03 04:53:28;;;;;;;21.15;16.92;;;6.70;91.10;;;;;;5065126;28;20036;-69
2022/05/03 04:55:54;;;;;;;21.92;17.65;;;6.70;90.20;;;;;;5060041;28;20082;-69
2022/05/03 04:58:20;;;;;;;19.83;16.02;;;6.90;89.50;;;;;;5053212;28;20025;-68
2022/05/03 05:00:45;;;;;;;19.00;15.82;;;7.00;89.80;;;;;;5050469;28;20113;-68
2022/05/03 05:03:11;;;;;;;20.27;16.80;;;7.20;89.80;;;;;;5035482;28;20318;-67
2022/05/03 05:05:37;;;;;;;21.05;16.95;;;7.30;90.10;;;;;;5044048;28;20720;-67
2022/05/03 05:08:07;;;;;;;20.08;15.32;;;7.50;91.10;;;;;;5035321;28;20053;-67
2022/05/03 05:10:33;;;;;;;18.15;15.23;;;7.70;91.60;;;;;;5051588;28;20063;-67
2022/05/03 05:13:00;;;;;;;16.92;14.82;;;7.80;92.50;;;;;;5054583;28;20313;-67
2022/05/03 05:15:28;;;;;;;17.42;14.63;;;7.80;92.80;;;;;;5051726;28;20040;-67
2022/05/03 05:17:56;;;;;;;17.83;14.73;;;7.90;92.80;;;;;;5054198;28;20421;-68
2022/05/03 05:20:22;;;;;;;17.23;13.18;;;8.00;93.10;;;;;;5051942;28;20056;-69
2022/05/03 05:22:48;;;;;;;17.38;13.55;;;8.10;93.80;;;;;;5037608;28;20079;-69
2022/05/03 05:25:19;;;;;;;17.92;14.02;;;8.30;94.30;;;;;;5055344;28;20032;-68
2022/05/03 05:27:45;;;;;;;14.23;12.18;;;8.50;95.00;;;;;;5055340;28;20028;-69
2022/05/03 05:30:11;;;;;;;16.30;12.15;;;8.70;95.20;;;;;;5052424;28;20033;-69
2022/05/03 05:32:37;;;;;;;15.85;12.23;;;8.90;94.60;;;;;;5054622;28;20029;-68
2022/05/03 05:35:04;;;;;;;14.13;11.93;;;9.10;94.80;;;;;;5054078;28;20033;-68
2022/05/03 05:37:33;;;;;;;13.75;10.98;;;9.20;95.60;;;;;;5052514;28;20025;-68
2022/05/03 05:39:59;;;;;;;11.88;10.27;;;9.40;96.20;;;;;;5053089;28;20024;-69
2022/05/03 05:42:27;;;;;;;12.57;10.27;;;9.50;96.60;;;;;;5039325;28;20021;-67
2022/05/03 05:44:53;;;;;;;13.85;9.73;;;9.80;96.90;;;;;;5047645;28;20314;-68
2022/05/03 05:47:19;;;;;;;12.70;9.23;;;10.10;97.50;;;;;;5041445;28;20025;-68
2022/05/03 05:49:45;;;;;;;10.43;8.70;;;10.50;97.60;;;;;;5054386;28;20021;-68
2022/05/03 05:54:55;;;;;;;10.18;7.32;;;11.20;98.00;;;;;;5056835;28;20032;-69
2022/05/03 05:57:20;;;;;;;10.35;7.93;;;11.60;98.00;;;;;;5047211;28;20116;-68
2022/05/03 05:59:46;;;;;;;11.50;8.95;;;11.90;98.00;;;;;;5045951;28;20045;-68
2022/05/03 06:02:13;;;;;;;13.38;11.55;;;12.30;98.00;;;;;;5055867;28;20025;-69
2022/05/03 06:04:38;;;;;;;11.95;9.48;;;12.70;96.20;;;;;;5057288;28;20096;-68
2022/05/03 06:07:04;;;;;;;11.68;8.48;;;13.10;94.70;;;;;;5057312;28;20113;-68
2022/05/03 06:09:29;;;;;;;13.05;8.73;;;13.40;93.30;;;;;;5055870;28;20029;-68
2022/05/03 06:11:55;;;;;;;13.40;8.73;;;13.80;92.50;;;;;;5056971;28;20433;-68
2022/05/03 06:14:21;;;;;;;11.70;8.27;;;14.10;91.50;;;;;;5053335;28;20033;-69
2022/05/03 06:16:59;;;;;;;16.42;9.75;;;14.50;90.80;;;;;;5057089;28;20023;-70
2022/05/03 06:19:25;;;;;;;14.30;11.25;;;14.70;90.20;;;;;;5039910;28;20420;-69
2022/05/03 06:21:51;;;;;;;14.80;11.10;;;15.00;90.00;;;;;;5057402;28;20071;-68
2022/05/03 06:24:17;;;;;;;13.23;10.25;;;15.20;88.40;;;;;;5058222;28;20029;-68
2022/05/03 06:26:46;;;;;;;11.13;9.45;;;15.30;87.60;;;;;;5058069;28;20037;-68
2022/05/03 06:29:12;;;;;;;10.93;9.15;;;15.50;87.10;;;;;;5056656;28;20033;-69
2022/05/03 06:31:44;;;;;;;14.18;11.25;;;15.30;87.00;;;;;;5056265;28;20104;-69
2022/05/03 06:34:10;;;;;;;13.98;11.15;;;15.10;88.40;;;;;;5055993;28;20098;-68
2022/05/03 06:36:36;;;;;;;13.25;9.98;;;14.80;89.30;;;;;;5057147;28;20025;-68
2022/05/03 06:39:09;;;;;;;12.45;9.43;;;14.70;90.30;;;;;;5056092;28;20021;-69
2022/05/03 06:41:35;;;;;;;14.45;9.73;;;14.60;90.40;;;;;;5057098;28;20059;-68
2022/05/03 06:44:00;;;;;;;13.13;9.75;;;14.40;89.90;;;;;;5058125;28;20025;-68
2022/05/03 06:46:27;;;;;;;15.45;11.07;;;14.40;90.50;;;;;;5056741;28;20028;-68
2022/05/03 06:48:54;;;;;;;14.95;10.68;;;14.50;90.50;;;;;;5056575;28;20036;-68
2022/05/03 06:51:20;;;;;;;13.68;10.02;;;14.40;90.70;;;;;;5056153;28;20329;-69
2022/05/03 06:53:46;;;;;;;14.10;10.18;;;14.30;90.80;;;;;;5057671;28;20029;-68
2022/05/03 06:56:12;;;;;;;15.20;10.70;;;14.20;90.80;;;;;;5057758;28;20021;-67
2022/05/03 06:58:39;;;;;;;12.32;9.65;;;14.20;90.60;;;;;;5056563;28;20025;-69
2022/05/03 07:01:13;;;;;;;14.48;10.52;;;14.30;90.60;;;;;;5056570;28;20040;-68
2022/05/03 07:03:40;;;;;;;12.82;10.88;;;14.50;89.50;;;;;;5056692;28;20603;-68
2022/05/03 07:06:06;;;;;;;13.52;10.50;;;14.40;89.90;;;;;;5054589;28;20025;-68
2022/05/03 07:08:33;;;;;;;15.27;10.63;;;14.50;89.60;;;;;;5055764;28;20029;-70
2022/05/03 07:10:58;;;;;;;12.27;9.57;;;14.60;89.20;;;;;;5055852;28;20021;-68
2022/05/03 07:13:24;;;;;;;14.55;10.40;;;14.70;89.30;;;;;;5049970;28;20043;-69
2022/05/03 07:15:55;;;;;;;12.95;10.23;;;14.70;88.90;;;;;;5051292;28;20029;-69
2022/05/03 07:23:51;;;;;;;11.73;9.63;;;15.40;87.80;;;;;;5048953;28;20027;-68
2022/05/03 07:26:17;;;;;;;14.90;9.48;;;15.70;87.20;;;;;;5051614;28;20033;-69
2022/05/03 07:28:43;;;;;;;10.52;8.05;;;15.90;86.30;;;;;;5052810;28;20025;-68
2022/05/03 07:31:10;;;;;;;14.90;9.27;;;16.20;85.40;;;;;;5025216;28;20433;-69
2022/05/03 07:33:36;;;;;;;10.70;8.10;;;16.80;84.10;;;;;;5056649;28;20033;-68
2022/05/03 07:36:03;;;;;;;9.50;7.93;;;17.00;82.80;;;;;;5056147;28;20333;-68
2022/05/03 07:38:29;;;;;;;9.65;8.38;;;17.30;82.80;;;;;;5020707;28;20104;-68
2022/05/03 07:40:56;;;;;;;10.85;8.50;;;17.50;81.80;;;;;;5037055;28;20017;-68
2022/05/03 07:43:22;;;;;;;11.35;7.88;;;17.50;82.10;;;;;;5038761;28;20044;-70
2022/05/03 07:45:48;;;;;;;10.77;8.25;;;17.60;81.50;;;;;;5055466;28;20040;-68
2022/05/03 07:48:14;;;;;;;9.95;7.60;;;17.70;81.20;;;;;;5053746;28;20051;-81
2022/05/03 07:50:40;;;;;;;11.45;8.85;;;17.80;81.20;;;;;;5026639;28;20029;-67
2022/05/03 07:53:06;;;;;;;10.40;7.97;;;17.80;81.80;;;;;;5040103;28;20126;-68
2022/05/03 07:55:32;;;;;;;8.45;6.93;;;17.60;81.50;;;;;;5033405;28;20056;-68
2022/05/03 07:57:57;;;;;;;9.55;7.55;;;17.40;81.30;;;;;;5036247;28;20784;-67
2022/05/03 08:00:23;;;;;;;10.15;7.18;;;17.50;82.40;;;;;;5034285;28;20049;-67
2022/05/03 08:02:49;;;;;;;10.43;8.57;;;17.40;82.40;;;;;;5032004;28;20346;-73
2022/05/03 08:05:16;;;;;;;11.27;7.93;;;17.60;82.30;;;;;;5038816;28;20053;-67
2022/05/03 08:07:42;;;;;;;12.07;7.93;;;17.50;82.60;;;;;;5035274;28;20020;-68
2022/05/03 08:10:08;;;;;;;9.43;7.70;;;17.70;81.20;;;;;;5032148;28;20172;-68
2022/05/03 08:12:35;;;;;;;10.93;7.47;;;17.40;81.80;;;;;;5045918;28;20033;-68
2022/05/03 08:15:04;;;;;;;9.73;6.55;;;17.70;82.30;;;;;;5040632;28;20017;-68
2022/05/03 08:17:31;;;;;;;8.68;6.93;;;19.10;78.50;;;;;;5052740;28;20017;-68
2022/05/03 08:19:57;;;;;;;9.10;5.72;;;20.80;73.90;;;;;;5044065;28;20350;-69
2022/05/03 08:22:24;;;;;;;7.45;5.57;;;22.00;70.00;;;;;;5055019;28;20025;-69
2022/05/03 08:24:50;;;;;;;7.75;6.20;;;21.90;68.30;;;;;;5056122;28;20030;-69
2022/05/03 08:27:16;;;;;;;7.55;5.53;;;22.00;68.30;;;;;;5055881;28;20025;-68
2022/05/03 08:29:42;;;;;;;8.23;6.20;;;22.30;67.80;;;;;;5052218;28;20330;-69
2022/05/03 08:32:09;;;;;;;9.48;5.95;;;22.40;66.30;;;;;;5051488;28;20486;-68
2022/05/03 08:34:35;;;;;;;6.97;5.28;;;22.30;67.10;;;;;;5054946;28;20025;-69
2022/05/03 08:42:30;;;;;;;7.47;5.65;;;23.90;63.70;;;;;;5035985;28;20080;-69
2022/05/03 08:44:56;;;;;;;9.52;5.82;;;23.40;64.80;;;;;;5041575;28;20056;-68
2022/05/03 08:47:25;;;;;;;9.40;6.03;;;22.70;65.90;;;;;;5055373;28;20035;-68
2022/05/03 08:50:00;;;;;;;7.63;5.75;;;22.80;66.70;;;;;;5055928;28;20029;-68
2022/05/03 08:52:28;;;;;;;9.90;6.22;;;22.70;66.40;;;;;;5055716;28;20033;-69
2022/05/03 08:54:55;;;;;;;9.23;7.07;;;22.60;66.60;;;;;;5055729;28;20025;-68
2022/05/03 08:57:22;;;;;;;10.88;6.85;;;21.90;67.40;;;;;;5055997;28;20044;-68
2022/05/03 08:59:48;;;;;;;12.18;6.93;;;21.80;69.00;;;;;;5055636;28;20119;-68
2022/05/03 09:02:14;;;;;;;11.02;6.85;;;21.50;67.80;;;;;;5052801;28;20025;-68
2022/05/03 09:04:40;;;;;;;9.43;6.20;;;21.20;68.90;;;;;;5055618;28;20075;-68
2022/05/03 09:07:25;;;;;;;9.18;5.88;;;21.50;67.30;;;;;;5054568;28;20372;-67
2022/05/03 09:09:53;;;;;;;7.57;4.88;;;22.20;67.00;;;;;;5055298;28;20320;-67
2022/05/03 09:12:22;;;;;;;6.65;3.97;;;22.40;64.50;;;;;;5057011;28;20314;-67
2022/05/03 09:14:48;;;;;;;7.38;4.10;;;22.50;63.50;;;;;;5059653;28;20028;-67
2022/05/03 09:17:32;;;;;;;7.38;4.00;;;22.90;63.20;;;;;;5040078;28;20180;-66
2022/05/03 09:19:58;;;;;;;8.40;3.90;;;23.40;61.70;;;;;;5059901;28;20411;-69
2022/05/03 09:25:13;;;;;;;6.15;3.97;;;21.70;63.50;;;;;;5059926;28;20063;-68
2022/05/03 09:27:38;;;;;;;6.45;3.90;;;21.50;64.30;;;;;;5058835;28;20033;-67
2022/05/03 09:30:06;;;;;;;6.53;4.25;;;21.90;63.70;;;;;;5058308;28;20354;-69
2022/05/03 09:32:44;;;;;;;7.43;4.43;;;22.00;63.40;;;;;;5059551;28;20032;-68
2022/05/03 09:35:35;;;;;;;5.65;4.10;;;21.20;65.10;;;;;;5059367;28;20029;-69
2022/05/03 09:38:03;;;;;;;7.88;4.22;;;22.20;64.80;;;;;;5057867;28;20386;-68
2022/05/03 09:40:49;;;;;;;6.75;4.80;;;23.10;62.80;;;;;;5041256;28;20028;-69
2022/05/03 09:43:16;;;;;;;6.75;4.85;;;23.80;61.00;;;;;;5059170;28;20025;-68
2022/05/03 09:45:42;;;;;;;6.10;4.30;;;23.80;61.70;;;;;;5057768;28;20027;-68
2022/05/03 09:48:08;;;;;;;8.23;4.22;;;23.30;60.70;;;;;;5058268;28;20032;-69
2022/05/03 09:50:42;;;;;;;5.80;4.05;;;23.30;61.00;;;;;;5058910;28;20043;-68
2022/05/03 09:53:18;;;;;;;10.15;4.78;;;23.60;60.10;;;;;;5059060;28;20021;-67
2022/05/03 09:55:47;;;;;;;8.63;4.35;;;23.90;60.00;;;;;;5058977;28;20033;-68
2022/05/03 09:58:15;;;;;;;6.95;3.92;;;24.10;60.20;;;;;;5058240;28;20108;-68
2022/05/03 10:00:43;;;;;;;6.82;4.32;;;24.20;60.00;;;;;;5057554;28;20056;-68
2022/05/03 10:03:10;;;;;;;12.18;5.18;;;23.90;60.10;;;;;;5058826;28;20029;-67
2022/05/03 10:05:40;;;;;;;7.50;5.28;;;23.20;61.00;;;;;;5057997;28;20013;-68
2022/05/03 10:08:10;;;;;;;13.82;5.72;;;22.50;61.70;;;;;;5057760;28;20029;-68
2022/05/03 10:10:35;;;;;;;10.18;5.53;;;21.20;63.80;;;;;;5058945;28;20321;-68
2022/05/03 10:13:01;;;;;;;10.40;5.97;;;19.80;66.30;;;;;;5058770;28;20096;-68
2022/05/03 10:21:13;;;;;;;7.25;4.97;;;19.50;67.90;;;;;;5058625;28;20044;-68
2022/05/03 10:23:39;;;;;;;9.05;4.72;;;19.80;68.40;;;;;;5057660;28;20354;-69
2022/05/03 10:26:08;;;;;;;8.35;5.00;;;20.90;65.10;;;;;;5058358;28;20029;-68
2022/05/03 10:29:07;;;;;;;6.55;4.47;;;22.00;63.50;;;;;;5057561;28;20053;-68
2022/05/03 10:31:58;;;;;;;6.85;3.85;;;22.60;61.60;;;;;;5057421;28;20104;-69
2022/05/03 10:34:44;;;;;;;6.03;4.18;;;23.00;62.40;;;;;;5040570;28;20158;-69
2022/05/03 10:37:13;;;;;;;6.28;4.60;;;23.60;59.70;;;;;;5057055;28;20017;-69
2022/05/03 10:39:45;;;;;;;6.72;4.80;;;22.80;60.20;;;;;;5058171;28;20077;-68
2022/05/03 10:42:13;;;;;;;7.35;4.88;;;21.70;62.40;;;;;;5058251;28;20024;-69
2022/05/03 10:44:41;;;;;;;7.85;4.50;;;21.00;63.00;;;;;;5057107;28;20029;-69
2022/05/03 10:47:08;;;;;;;6.68;5.25;;;20.00;65.70;;;;;;5056871;28;20037;-68
2022/05/03 10:49:34;;;;;;;7.05;4.68;;;19.50;67.00;;;;;;5040423;28;20021;-68
2022/05/03 10:52:13;;;;;;;7.65;4.30;;;19.20;67.40;;;;;;5058035;28;20032;-68
2022/05/03 10:55:08;;;;;;;7.38;4.85;;;19.10;69.20;;;;;;5051773;28;20033;-69
2022/05/03 10:58:11;;;;;;;6.38;4.25;;;19.10;68.00;;;;;;5057976;28;20056;-68
2022/05/03 11:01:11;;;;;;;7.22;5.10;;;19.30;68.40;;;;;;5053194;28;20084;-68
2022/05/03 11:03:51;;;;;;;8.00;5.22;;;19.20;68.70;;;;;;5054278;28;20490;-68
2022/05/03 11:06:19;;;;;;;6.93;4.35;;;19.20;69.40;;;;;;5037864;28;20322;-68
2022/05/03 11:14:25;;;;;;;6.88;4.78;;;19.10;70.80;;;;;;5055252;28;20044;-68
2022/05/03 11:17:14;;;;;;;7.13;5.60;;;19.20;73.10;;;;;;5055205;28;20029;-68
2022/05/03 11:19:52;;;;;;;10.40;4.80;;;19.00;72.50;;;;;;5057388;28;20013;-68
2022/05/03 11:22:20;;;;;;;7.28;4.80;;;19.00;73.90;;;;;;5055717;28;20025;-68
2022/05/03 11:24:48;;;;;;;6.93;5.00;;;19.00;73.40;;;;;;5056500;28;20116;-68
2022/05/03 11:27:15;;;;;;;9.05;5.05;;;18.80;74.40;;;;;;5056256;28;20033;-68
2022/05/03 11:29:49;;;;;;;13.35;5.47;;;18.80;73.50;;;;;;5057084;28;20037;-68
2022/05/03 11:32:16;;;;;;;10.98;5.93;;;18.90;73.50;;;;;;5053866;28;20032;-67
2022/05/03 11:34:43;;;;;;;10.02;5.68;;;19.10;73.10;;;;;;5055939;28;20025;-68
2022/05/03 11:37:09;;;;;;;8.00;5.40;;;19.00;73.50;;;;;;5056205;28;20341;-68
2022/05/03 11:39:36;;;;;;;9.23;5.40;;;19.20;73.60;;;;;;5057137;28;20029;-67
2022/05/03 11:42:04;;;;;;;8.20;5.65;;;19.20;72.00;;;;;;5055145;28;20032;-67
2022/05/03 11:44:30;;;;;;;9.50;5.47;;;19.30;72.90;;;;;;5048944;28;20021;-67
2022/05/03 11:46:59;;;;;;;8.63;5.45;;;19.50;73.50;;;;;;5054975;28;20376;-68
2022/05/03 11:49:26;;;;;;;6.97;5.05;;;19.50;73.60;;;;;;5056973;28;20033;-68
2022/05/03 11:57:27;;;;;;;7.47;4.75;;;19.70;74.00;;;;;;5056805;28;20024;-67
2022/05/03 11:59:58;;;;;;;7.38;5.00;;;19.70;73.40;;;;;;5054934;28;20041;-67
2022/05/03 12:02:33;;;;;;;7.80;3.60;;;19.60;73.40;;;;;;5055327;28;20025;-68
2022/05/03 12:04:59;;;;;;;5.97;3.22;;;19.70;73.40;;;;;;5054949;28;20520;-67
2022/05/03 12:07:25;;;;;;;8.32;3.47;;;19.80;71.90;;;;;;5039049;28;20345;-67
2022/05/03 12:09:50;;;;;;;7.47;2.88;;;19.80;70.80;;;;;;5055048;28;20029;-67
2022/05/03 12:12:44;;;;;;;5.97;2.47;;;19.90;71.70;;;;;;5056568;28;20032;-67
2022/05/03 12:15:21;;;;;;;6.38;2.47;;;20.00;69.30;;;;;;5052807;28;20075;-68
2022/05/03 12:18:12;;;;;;;5.95;2.63;;;19.70;68.30;;;;;;5055359;28;20017;-68
2022/05/03 12:20:44;;;;;;;4.78;1.70;;;20.00;68.70;;;;;;5056322;28;20103;-68
2022/05/03 12:23:16;;;;;;;7.25;2.13;;;20.30;67.30;;;;;;5055337;28;20049;-69
2022/05/03 12:25:43;;;;;;;7.68;2.10;;;20.50;66.50;;;;;;5054457;28;20086;-69
2022/05/03 12:28:09;;;;;;;8.50;2.90;;;20.40;66.50;;;;;;5055444;28;20064;-69
2022/05/03 12:30:35;;;;;;;7.35;2.50;;;20.00;67.50;;;;;;5055100;28;20060;-69
2022/05/03 12:33:09;;;;;;;5.18;1.95;;;19.70;69.40;;;;;;5054049;28;20025;-67
2022/05/03 12:35:36;;;;;;;6.53;2.13;;;19.80;70.80;;;;;;5054303;28;20587;-68
2022/05/03 12:38:16;;;;;;;4.75;1.85;;;19.70;70.30;;;;;;5055825;28;20691;-68
2022/05/03 12:40:50;;;;;;;4.13;1.83;;;19.60;67.90;;;;;;5056802;28;20060;-69
2022/05/03 12:43:20;;;;;;;4.75;1.88;;;19.40;67.80;;;;;;5054681;28;20380;-68
2022/05/03 12:46:25;;;;;;;6.13;2.50;;;18.90;68.50;;;;;;5053883;28;20025;-68
2022/05/03 12:48:51;;;;;;;7.00;3.70;;;18.70;71.70;;;;;;5039752;28;20040;-67
2022/05/03 12:51:17;;;;;;;6.35;3.35;;;18.50;75.00;;;;;;5055801;28;20029;-68
2022/05/03 12:53:47;;;;;;;6.32;3.70;;;18.30;75.40;;;;;;5054612;28;20024;-68
2022/05/03 12:58:58;;;;;;;;;;;18.00;76.30;;;;;;5054430;28;20460;-68
2022/05/03 13:01:24;;;;;;;6.40;3.08;;;18.00;75.80;;;;;;5054476;28;20344;-68
2022/05/03 13:03:49;;;;;;;6.25;3.20;;;18.20;76.30;;;;;;5054646;28;20053;-67
2022/05/03 13:06:17;;;;;;;5.55;3.00;;;18.30;75.60;;;;;;5055574;28;20334;-67
2022/05/03 13:08:43;;;;;;;7.43;2.67;;;18.20;75.80;;;;;;5053890;28;20043;-67
2022/05/03 13:11:10;;;;;;;8.63;2.70;;;18.40;75.60;;;;;;5055362;28;20032;-68
2022/05/03 13:13:38;;;;;;;5.43;2.97;;;18.30;74.00;;;;;;5053681;28;20024;-68
2022/05/03 13:16:04;;;;;;;4.53;2.30;;;18.20;74.40;;;;;;5054273;28;20021;-69
2022/05/03 13:18:30;;;;;;;6.30;3.08;;;18.30;72.70;;;;;;5053384;28;20165;-68
2022/05/03 13:20:56;;;;;;;5.03;2.72;;;18.10;72.40;;;;;;5055602;28;20310;-70
2022/05/03 13:23:21;;;;;;;7.72;2.80;;;18.20;73.70;;;;;;5053845;28;20024;-68
2022/05/03 13:25:47;;;;;;;5.00;2.50;;;18.20;73.40;;;;;;5055356;28;20410;-68
2022/05/03 13:28:13;;;;;;;5.60;2.22;;;18.10;72.60;;;;;;5054567;28;20414;-68
2022/05/03 13:30:40;;;;;;;5.45;2.50;;;18.20;71.90;;;;;;5051977;28;20036;-68
2022/05/03 13:33:06;;;;;;;5.40;1.95;;;18.30;70.70;;;;;;5054419;28;20413;-67
2022/05/03 13:41:01;;;;;;;5.90;1.95;;;18.60;71.10;;;;;;5022805;28;20079;-68
2022/05/03 13:43:27;;;;;;;3.95;2.28;;;18.60;68.60;;;;;;5055098;28;20356;-68
2022/05/03 13:45:53;;;;;;;4.18;2.10;;;18.50;69.70;;;;;;5051958;28;20325;-69
2022/05/03 13:48:19;;;;;;;5.47;2.60;;;18.70;70.50;;;;;;5055266;28;20398;-68
2022/05/03 13:50:44;;;;;;;7.38;2.65;;;18.90;71.80;;;;;;5053301;28;20037;-69
2022/05/03 13:53:11;;;;;;;4.30;2.15;;;18.90;71.20;;;;;;5054012;28;20025;-69